Time;durP1;ratioP1;P1;durP2;ratioP2;P2;SDS_P1;SDS_P2;PMS_P1;PMS_P2;Temp;Humidity;BMP_temperature;BMP_pressure;BME280_temperature;BME280_humidity;BME280_pressure;Samples;Min_cycle;Max_cycle;Signal;HPM_P1;HPM_P2
2022/10/07 00:01:29;;;;;;;;;;;12.00;99.90;;;;;;5029248;28;20029;-77
2022/10/07 00:03:55;;;;;;;10.20;5.63;;;11.90;99.90;;;;;;5028721;28;19905;-76
2022/10/07 00:06:21;;;;;;;;;;;11.90;99.90;;;;;;5030360;28;20624;-76
2022/10/07 00:08:50;;;;;;;8.07;5.15;;;11.90;99.90;;;;;;5029932;28;19909;-75
2022/10/07 00:11:20;;;;;;;11.05;5.70;;;11.90;99.90;;;;;;5030021;28;20551;-76
2022/10/07 00:13:47;;;;;;;9.18;5.70;;;11.90;99.90;;;;;;5028624;28;20516;-77
2022/10/07 00:16:16;;;;;;;11.13;6.10;;;11.80;99.90;;;;;;5029726;28;20464;-77
2022/10/07 00:18:42;;;;;;;8.65;5.50;;;11.80;99.90;;;;;;5028550;28;20065;-76
2022/10/07 00:21:11;;;;;;;6.55;4.70;;;11.80;99.90;;;;;;5029754;28;20482;-77
2022/10/07 00:23:38;;;;;;;8.23;4.90;;;11.80;99.90;;;;;;5029943;28;20044;-76
2022/10/07 00:26:06;;;;;;;24.70;9.98;;;11.90;99.90;;;;;;5028078;28;20040;-76
2022/10/07 00:28:33;;;;;;;11.57;6.88;;;11.80;99.90;;;;;;5029579;28;20100;-76
2022/10/07 00:31:08;;;;;;;7.93;5.30;;;11.70;99.90;;;;;;5028158;28;20026;-77
2022/10/07 00:33:36;;;;;;;11.35;5.22;;;11.70;99.90;;;;;;5029645;28;20036;-76
2022/10/07 00:36:06;;;;;;;10.40;5.80;;;11.80;99.90;;;;;;5029324;28;20571;-77
2022/10/07 00:38:32;;;;;;;8.90;4.90;;;11.70;99.90;;;;;;5028165;28;20090;-76
2022/10/07 00:40:57;;;;;;;;;;;11.70;99.90;;;;;;5028606;28;20124;-76
2022/10/07 00:43:28;;;;;;;6.65;4.18;;;11.70;99.90;;;;;;5029290;28;19908;-76
2022/10/07 00:45:56;;;;;;;15.73;7.63;;;11.80;99.90;;;;;;5029221;28;20486;-76
2022/10/07 00:48:26;;;;;;;34.13;14.82;;;11.70;99.90;;;;;;5027955;28;20047;-76
2022/10/07 00:50:55;;;;;;;16.10;8.57;;;11.60;99.90;;;;;;5027960;28;20026;-76
2022/10/07 00:53:22;;;;;;;11.90;6.95;;;11.60;99.90;;;;;;5029121;28;20088;-76
2022/10/07 00:55:48;;;;;;;13.35;7.47;;;11.50;99.90;;;;;;5029251;28;20102;-76
2022/10/07 00:58:14;;;;;;;;;;;11.50;99.90;;;;;;5029428;28;20065;-76
2022/10/07 01:00:39;;;;;;;14.30;8.23;;;11.50;99.90;;;;;;5029051;28;20011;-77
2022/10/07 01:03:05;;;;;;;;;;;11.60;99.90;;;;;;5029230;28;20611;-75
2022/10/07 01:05:31;;;;;;;7.07;5.28;;;11.40;99.90;;;;;;5027758;28;20373;-76
2022/10/07 01:07:57;;;;;;;;;;;11.50;99.90;;;;;;5029245;28;20498;-77
2022/10/07 01:10:30;;;;;;;8.25;5.60;;;11.50;99.90;;;;;;5027532;28;19905;-76
2022/10/07 01:13:02;;;;;;;10.20;5.30;;;11.60;99.90;;;;;;5027703;28;20029;-75
2022/10/07 01:15:38;;;;;;;8.25;5.13;;;11.60;99.90;;;;;;5028936;28;20033;-77
2022/10/07 01:18:39;;;;;;;6.05;4.43;;;11.60;99.90;;;;;;5027370;28;20033;-76
2022/10/07 01:21:31;;;;;;;6.97;4.78;;;11.60;99.90;;;;;;5027449;28;20026;-76
2022/10/07 01:24:39;;;;;;;9.60;4.65;;;11.60;99.90;;;;;;5027591;28;20120;-76
2022/10/07 01:27:16;;;;;;;10.60;3.80;;;11.50;99.90;;;;;;5028893;28;20041;-76
2022/10/07 01:29:56;;;;;;;9.75;4.90;;;11.50;99.90;;;;;;5027572;28;20156;-77
2022/10/07 01:32:43;;;;;;;8.93;5.13;;;11.50;99.90;;;;;;5028032;28;20021;-76
2022/10/07 01:35:17;;;;;;;;;;;11.50;99.90;;;;;;5029537;28;20041;-76
2022/10/07 01:37:48;;;;;;;13.23;4.03;;;11.50;99.90;;;;;;5028633;28;19925;-76
2022/10/07 01:40:25;;;;;;;4.45;2.95;;;11.50;99.90;;;;;;5027442;28;20123;-76
2022/10/07 01:42:52;;;;;;;12.32;3.53;;;11.50;99.90;;;;;;5028599;28;20478;-77
2022/10/07 01:45:21;;;;;;;8.18;4.05;;;11.40;99.90;;;;;;5028320;28;20109;-76
2022/10/07 01:47:50;;;;;;;7.95;4.00;;;11.40;99.90;;;;;;5027060;28;20083;-77
2022/10/07 01:50:19;;;;;;;5.18;3.92;;;11.40;99.90;;;;;;5028380;28;20116;-76
2022/10/07 01:52:45;;;;;;;6.45;3.85;;;11.30;99.90;;;;;;5027224;28;20032;-76
2022/10/07 01:55:14;;;;;;;;;;;11.20;99.90;;;;;;5029033;28;20034;-75
2022/10/07 01:57:47;;;;;;;6.63;3.35;;;11.20;99.90;;;;;;5027348;28;19931;-76
2022/10/07 02:00:15;;;;;;;7.57;3.17;;;11.30;99.90;;;;;;5027274;28;20022;-75
2022/10/07 02:03:13;;;;;;;7.78;3.47;;;11.20;99.90;;;;;;5028901;28;20107;-75
2022/10/07 02:05:47;;;;;;;6.10;4.38;;;11.10;99.90;;;;;;5027405;28;20037;-78
2022/10/07 02:08:22;;;;;;;5.53;3.63;;;11.20;99.90;;;;;;5028725;28;20029;-76
2022/10/07 02:11:02;;;;;;;7.60;3.85;;;11.20;99.90;;;;;;5027786;28;20033;-76
2022/10/07 02:13:40;;;;;;;10.77;3.42;;;11.20;99.90;;;;;;5028335;28;20030;-76
2022/10/07 02:16:17;;;;;;;7.50;3.67;;;11.20;99.90;;;;;;5027343;28;20060;-76
2022/10/07 02:18:47;;;;;;;6.57;3.75;;;11.30;99.90;;;;;;5028013;28;20087;-77
2022/10/07 02:21:17;;;;;;;9.10;4.28;;;11.30;99.90;;;;;;5028460;28;20072;-78
2022/10/07 02:23:44;;;;;;;6.50;3.65;;;11.30;99.90;;;;;;5027058;28;20038;-77
2022/10/07 02:26:13;;;;;;;6.68;3.25;;;11.30;99.90;;;;;;5026716;28;20064;-76
2022/10/07 02:28:41;;;;;;;9.85;4.22;;;11.30;99.90;;;;;;5026722;28;20453;-77
2022/10/07 02:31:09;;;;;;;7.75;3.85;;;11.30;99.90;;;;;;5027899;28;20040;-77
2022/10/07 02:33:37;;;;;;;7.05;3.75;;;11.20;99.90;;;;;;5026974;28;20029;-77
2022/10/07 02:36:10;;;;;;;14.05;4.50;;;11.20;99.90;;;;;;5026639;28;20430;-77
2022/10/07 02:38:38;;;;;;;6.20;3.47;;;11.20;99.90;;;;;;5028011;28;20028;-77
2022/10/07 02:41:06;;;;;;;9.73;4.18;;;11.30;99.90;;;;;;5026811;28;20061;-77
2022/10/07 02:43:40;;;;;;;6.68;3.58;;;11.20;99.90;;;;;;5026949;28;20120;-77
2022/10/07 02:46:15;;;;;;;11.30;3.67;;;11.20;99.90;;;;;;5029631;28;20044;-77
2022/10/07 02:48:57;;;;;;;8.90;3.75;;;11.20;99.90;;;;;;5030799;28;20112;-77
2022/10/07 02:51:27;;;;;;;9.63;3.10;;;11.20;99.90;;;;;;5030550;28;20029;-77
2022/10/07 02:53:55;;;;;;;6.05;3.22;;;11.20;99.90;;;;;;5030280;28;20037;-77
2022/10/07 02:56:24;;;;;;;8.70;4.30;;;11.20;99.90;;;;;;5031495;28;20053;-77
2022/10/07 02:58:51;;;;;;;7.38;3.47;;;11.20;99.90;;;;;;5030084;28;20553;-76
2022/10/07 03:01:22;;;;;;;7.40;3.17;;;11.20;99.90;;;;;;5030315;28;20401;-77
2022/10/07 03:03:47;;;;;;;5.28;3.95;;;11.20;99.90;;;;;;5031482;28;20507;-77
2022/10/07 03:06:13;;;;;;;;;;;11.20;99.90;;;;;;5031751;28;20065;-77
2022/10/07 03:08:40;;;;;;;6.60;3.88;;;11.20;99.90;;;;;;5030038;28;19912;-77
2022/10/07 03:11:05;;;;;;;16.48;4.63;;;11.20;99.90;;;;;;5029956;28;20516;-77
2022/10/07 03:13:31;;;;;;;;;;;11.20;99.90;;;;;;5030457;28;20025;-77
2022/10/07 03:15:56;;;;;;;11.48;3.70;;;11.20;99.90;;;;;;5031184;28;20301;-77
2022/10/07 03:18:28;;;;;;;;;;;11.20;99.90;;;;;;5031677;28;20029;-77
2022/10/07 03:20:59;;;;;;;4.90;3.03;;;11.10;99.90;;;;;;5031371;28;19930;-77
2022/10/07 03:23:27;;;;;;;11.45;3.75;;;11.10;99.90;;;;;;5030992;28;20400;-76
2022/10/07 03:25:55;;;;;;;7.47;3.60;;;11.10;99.90;;;;;;5031015;28;20397;-77
2022/10/07 03:28:23;;;;;;;8.43;3.20;;;11.10;99.90;;;;;;5029680;28;20067;-77
2022/10/07 03:30:49;;;;;;;12.13;3.88;;;11.10;99.90;;;;;;5031004;28;20185;-78
2022/10/07 03:33:17;;;;;;;4.57;3.45;;;11.10;99.90;;;;;;5031081;28;20549;-76
2022/10/07 03:35:42;;;;;;;8.10;3.47;;;11.10;99.90;;;;;;5029758;28;20021;-77
2022/10/07 03:38:09;;;;;;;;;;;11.10;99.90;;;;;;5029908;28;20040;-77
2022/10/07 03:40:36;;;;;;;5.40;4.07;;;11.00;99.90;;;;;;5031137;28;19931;-77
2022/10/07 03:43:02;;;;;;;9.60;5.15;;;11.00;99.90;;;;;;5030959;28;20087;-77
2022/10/07 03:45:29;;;;;;;;;;;10.90;99.90;;;;;;5031163;28;20029;-77
2022/10/07 03:47:55;;;;;;;9.90;4.47;;;10.90;99.90;;;;;;5029737;28;19916;-77
2022/10/07 03:50:21;;;;;;;16.70;3.97;;;10.90;99.90;;;;;;5030636;28;20041;-77
2022/10/07 03:52:47;;;;;;;;;;;10.90;99.90;;;;;;5031252;28;20025;-77
2022/10/07 03:55:12;;;;;;;7.05;4.07;;;10.90;99.90;;;;;;5028914;28;20294;-77
2022/10/07 03:57:51;;;;;;;;;;;11.00;99.90;;;;;;5031042;28;20116;-77
2022/10/07 04:00:19;;;;;;;13.05;4.40;;;11.00;99.90;;;;;;5029531;28;19909;-77
2022/10/07 04:02:46;;;;;;;10.90;4.40;;;11.00;99.90;;;;;;5029201;28;20036;-77
2022/10/07 04:05:14;;;;;;;8.25;4.57;;;11.00;99.90;;;;;;5029079;28;20095;-77
2022/10/07 04:07:42;;;;;;;9.18;4.85;;;11.00;99.90;;;;;;5030554;28;20036;-77
2022/10/07 04:10:08;;;;;;;7.72;5.30;;;11.00;99.90;;;;;;5030208;28;20044;-77
2022/10/07 04:12:34;;;;;;;10.55;5.55;;;11.00;99.90;;;;;;5029161;28;20540;-77
2022/10/07 04:15:00;;;;;;;;;;;11.10;99.90;;;;;;5030672;28;20053;-77
2022/10/07 04:17:27;;;;;;;8.98;5.28;;;11.10;99.90;;;;;;5030235;28;19999;-77
2022/10/07 04:19:52;;;;;;;13.15;6.10;;;10.90;99.90;;;;;;5030256;28;20498;-77
2022/10/07 04:22:18;;;;;;;;;;;11.00;99.90;;;;;;5030489;28;20037;-76
2022/10/07 04:25:32;;;;;;;7.40;5.40;;;11.00;99.90;;;;;;5030263;28;20302;-77
2022/10/07 04:27:30;;;;;;;7.60;5.10;;;11.00;99.90;;;;;;5029792;28;20048;-77
2022/10/07 04:29:55;;;;;;;11.95;4.72;;;11.10;99.90;;;;;;5029962;28;20489;-77
2022/10/07 04:32:21;;;;;;;;;;;11.10;99.90;;;;;;5029132;28;20139;-77
2022/10/07 04:34:51;;;;;;;13.00;5.38;;;11.20;99.90;;;;;;5029841;28;20437;-77
2022/10/07 04:37:18;;;;;;;11.63;5.30;;;11.10;99.90;;;;;;5028662;28;20033;-76
2022/10/07 04:39:43;;;;;;;8.88;4.70;;;11.20;99.90;;;;;;5028595;28;20072;-77
2022/10/07 04:43:17;;;;;;;;;;;11.20;99.90;;;;;;5030661;28;20025;-76
2022/10/07 04:44:54;;;;;;;10.98;5.35;;;11.20;99.90;;;;;;5034058;28;19909;-76
2022/10/07 04:47:20;;;;;;;;;;;11.10;99.90;;;;;;5029460;28;20038;-77
2022/10/07 04:49:45;;;;;;;7.93;4.97;;;11.10;99.90;;;;;;5032230;28;20005;-77
2022/10/07 04:52:12;;;;;;;;;;;11.10;99.90;;;;;;5038971;28;20612;-77
2022/10/07 04:54:38;;;;;;;21.17;7.00;;;11.10;99.90;;;;;;5037044;28;19913;-77
2022/10/07 04:57:04;;;;;;;;;;;11.10;99.90;;;;;;5034261;28;20049;-76
2022/10/07 04:59:29;;;;;;;21.15;6.82;;;11.10;99.90;;;;;;5036919;28;19963;-77
2022/10/07 05:01:55;;;;;;;;;;;11.10;99.90;;;;;;5037180;28;20438;-77
2022/10/07 05:04:21;;;;;;;14.57;6.90;;;11.10;99.90;;;;;;5027324;28;19963;-77
2022/10/07 05:06:46;;;;;;;;;;;11.10;99.90;;;;;;5029307;28;20037;-77
2022/10/07 05:09:12;;;;;;;15.70;8.98;;;11.20;99.90;;;;;;5031451;28;19945;-77
2022/10/07 05:11:38;;;;;;;;;;;11.20;99.90;;;;;;5029867;28;20032;-77
2022/10/07 05:14:03;;;;;;;14.88;9.55;;;11.20;99.90;;;;;;5028069;28;19909;-77
2022/10/07 05:16:29;;;;;;;;;;;11.30;99.90;;;;;;5029875;28;20083;-76
2022/10/07 05:18:56;;;;;;;23.98;13.10;;;11.30;99.90;;;;;;5029078;28;19909;-77
2022/10/07 05:21:21;;;;;;;21.48;13.13;;;11.40;99.90;;;;;;5028896;28;20112;-77
2022/10/07 05:23:47;;;;;;;;;;;11.50;99.90;;;;;;5032872;28;20124;-77
2022/10/07 05:26:14;;;;;;;17.98;10.50;;;11.60;99.90;;;;;;5035252;28;20274;-77
2022/10/07 05:28:40;;;;;;;19.13;12.45;;;11.70;99.90;;;;;;5027736;28;20056;-77
2022/10/07 05:31:13;;;;;;;21.27;12.82;;;11.80;99.90;;;;;;5027570;28;20026;-77
2022/10/07 05:33:39;;;;;;;18.73;11.43;;;11.80;99.90;;;;;;5028349;28;20026;-76
2022/10/07 05:36:06;;;;;;;;;;;12.00;99.90;;;;;;5028610;28;20973;-77
2022/10/07 05:38:32;;;;;;;14.95;8.98;;;12.10;99.90;;;;;;5027543;28;19905;-75
2022/10/07 05:41:04;;;;;;;20.40;8.82;;;12.20;99.90;;;;;;5028652;28;20068;-77
2022/10/07 05:43:32;;;;;;;12.70;7.80;;;12.30;99.90;;;;;;5027433;28;20026;-76
2022/10/07 05:46:02;;;;;;;13.70;8.38;;;12.40;99.90;;;;;;5026588;28;20033;-77
2022/10/07 05:48:30;;;;;;;10.27;6.78;;;12.60;99.90;;;;;;5028677;28;20112;-75
2022/10/07 05:50:57;;;;;;;10.23;6.22;;;12.60;99.90;;;;;;5028746;28;20132;-75
2022/10/07 05:53:27;;;;;;;17.20;7.00;;;12.70;99.90;;;;;;5027007;28;20506;-76
2022/10/07 05:55:53;;;;;;;21.60;8.45;;;12.80;99.90;;;;;;5028492;28;20033;-75
2022/10/07 05:58:19;;;;;;;;;;;13.00;99.90;;;;;;5028837;28;20150;-75
2022/10/07 06:00:53;;;;;;;11.63;7.07;;;13.10;99.90;;;;;;5028186;28;20377;-75
2022/10/07 06:03:20;;;;;;;11.77;5.40;;;13.20;99.90;;;;;;5032388;28;20040;-74
2022/10/07 06:05:46;;;;;;;10.50;4.97;;;13.40;99.90;;;;;;5041117;28;20379;-74
2022/10/07 06:08:12;;;;;;;11.55;4.75;;;13.60;99.90;;;;;;5027413;28;20044;-74
2022/10/07 06:13:22;;;;;;;8.68;4.60;;;14.00;99.90;;;;;;5028561;28;19955;-76
2022/10/07 06:15:49;;;;;;;9.82;5.07;;;14.30;99.90;;;;;;5039960;28;20024;-76
2022/10/07 06:18:15;;;;;;;8.32;4.47;;;14.60;99.90;;;;;;5048015;28;20033;-76
2022/10/07 06:20:40;;;;;;;;;;;14.90;99.90;;;;;;5039191;28;20128;-76
2022/10/07 06:23:06;;;;;;;9.60;4.15;;;15.30;99.90;;;;;;5040185;28;20722;-76
2022/10/07 06:25:33;;;;;;;;;;;15.80;99.90;;;;;;5051231;28;20037;-76
2022/10/07 06:27:59;;;;;;;7.93;4.47;;;16.50;99.90;;;;;;5036284;28;19923;-74
2022/10/07 06:30:26;;;;;;;5.72;3.20;;;17.20;99.90;;;;;;5030325;28;20409;-74
2022/10/07 06:32:52;;;;;;;12.77;8.85;;;18.00;99.90;;;;;;5031670;28;20104;-75
2022/10/07 06:35:18;;;;;;;9.27;3.63;;;18.90;99.90;;;;;;5031554;28;20116;-77
2022/10/07 06:37:43;;;;;;;5.43;2.75;;;19.60;99.90;;;;;;5031451;28;20108;-77
2022/10/07 06:40:10;;;;;;;5.22;2.95;;;20.30;99.90;;;;;;5030155;28;20508;-77
2022/10/07 06:42:36;;;;;;;7.70;3.67;;;20.90;99.90;;;;;;5030339;28;20025;-74
2022/10/07 06:45:01;;;;;;;7.43;3.58;;;21.50;99.90;;;;;;5031469;28;20029;-74
2022/10/07 06:47:27;;;;;;;11.18;4.40;;;22.00;99.90;;;;;;5032025;28;20049;-75
2022/10/07 06:49:53;;;;;;;7.07;3.40;;;22.40;99.90;;;;;;5049714;28;20052;-75
2022/10/07 06:52:18;;;;;;;7.13;4.55;;;22.80;99.90;;;;;;5051534;28;20029;-74
2022/10/07 06:54:44;;;;;;;3.05;2.15;;;23.20;99.90;;;;;;5045959;28;20112;-75
2022/10/07 06:57:09;;;;;;;1.85;1.10;;;23.50;99.30;;;;;;5043135;28;20045;-77
2022/10/07 06:59:35;;;;;;;3.00;1.75;;;23.70;96.90;;;;;;5049225;28;20041;-78
2022/10/07 07:02:01;;;;;;;2.15;0.80;;;23.90;96.40;;;;;;5033685;28;20393;-74
2022/10/07 07:04:27;;;;;;;7.10;1.77;;;23.90;95.90;;;;;;5031472;28;20021;-74
2022/10/07 07:06:52;;;;;;;2.10;1.48;;;24.20;94.70;;;;;;5029726;28;20029;-74
2022/10/07 07:09:21;;;;;;;2.67;1.30;;;24.10;93.80;;;;;;5029880;28;20026;-74
2022/10/07 07:11:47;;;;;;;3.03;1.33;;;23.90;93.20;;;;;;5043984;28;20086;-73
2022/10/07 07:14:13;;;;;;;4.85;0.90;;;23.50;94.00;;;;;;5049120;28;20025;-77
2022/10/07 07:16:39;;;;;;;2.05;0.90;;;23.20;95.30;;;;;;5048647;28;20036;-77
2022/10/07 07:19:07;;;;;;;11.73;1.05;;;22.80;94.60;;;;;;5049449;28;20021;-77
2022/10/07 07:21:34;;;;;;;2.25;1.10;;;22.40;95.90;;;;;;5050979;28;20025;-76
2022/10/07 07:24:01;;;;;;;6.13;1.60;;;22.10;97.10;;;;;;5042285;28;20040;-77
2022/10/07 07:26:28;;;;;;;5.80;1.20;;;21.70;97.20;;;;;;5035330;28;20033;-77
2022/10/07 07:28:57;;;;;;;3.53;1.33;;;21.40;98.10;;;;;;5030670;28;20516;-77
2022/10/07 07:31:24;;;;;;;7.85;3.63;;;21.30;98.90;;;;;;5028609;28;20115;-76
2022/10/07 07:33:51;;;;;;;4.32;2.50;;;21.00;99.50;;;;;;5030413;28;20034;-76
2022/10/07 07:36:22;;;;;;;7.75;4.60;;;20.80;99.90;;;;;;5029338;28;20024;-74
2022/10/07 07:38:59;;;;;;;13.52;3.25;;;20.80;99.90;;;;;;5030262;28;20465;-74
2022/10/07 07:41:29;;;;;;;15.23;7.07;;;20.70;99.90;;;;;;5030377;28;20379;-74
2022/10/07 07:43:58;;;;;;;9.00;4.07;;;20.60;99.90;;;;;;5030565;28;20645;-74
2022/10/07 07:46:28;;;;;;;7.60;3.10;;;20.50;99.90;;;;;;5030222;28;20036;-74
2022/10/07 07:48:54;;;;;;;9.50;6.15;;;20.60;99.90;;;;;;5039438;28;20052;-74
2022/10/07 07:51:21;;;;;;;11.23;7.45;;;20.50;99.90;;;;;;5032575;28;20071;-74
2022/10/07 07:53:51;;;;;;;13.00;7.47;;;20.40;99.90;;;;;;5028919;28;20052;-74
2022/10/07 07:56:18;;;;;;;9.55;4.15;;;20.50;99.90;;;;;;5028643;28;20077;-74
2022/10/07 07:58:44;;;;;;;6.97;1.42;;;20.50;99.90;;;;;;5030171;28;20025;-74
2022/10/07 08:01:12;;;;;;;7.65;1.70;;;20.60;99.90;;;;;;5028570;28;20037;-74
2022/10/07 08:03:40;;;;;;;3.10;1.25;;;20.60;99.90;;;;;;5028817;28;20103;-76
2022/10/07 08:06:07;;;;;;;6.50;2.25;;;20.90;99.90;;;;;;5029867;28;20498;-77
2022/10/07 08:08:33;;;;;;;2.83;1.48;;;21.20;99.90;;;;;;5029860;28;20036;-77
2022/10/07 08:11:16;;;;;;;10.70;1.60;;;21.70;99.90;;;;;;5037048;28;20040;-77
2022/10/07 08:13:41;;;;;;;4.20;1.58;;;22.40;99.20;;;;;;5038139;28;20128;-77
2022/10/07 08:16:11;;;;;;;7.47;1.30;;;23.00;98.80;;;;;;5029600;28;20109;-75
2022/10/07 08:18:38;;;;;;;5.18;1.65;;;23.60;97.40;;;;;;5028466;28;20029;-74
2022/10/07 08:21:04;;;;;;;4.55;1.45;;;24.20;95.70;;;;;;5029831;28;20398;-75
2022/10/07 08:23:30;;;;;;;2.17;1.33;;;24.40;94.40;;;;;;5028407;28;20091;-74
2022/10/07 08:25:57;;;;;;;6.75;1.70;;;24.50;93.20;;;;;;5028209;28;20022;-74
2022/10/07 08:28:24;;;;;;;3.40;1.48;;;24.30;94.10;;;;;;5028201;28;20132;-75
2022/10/07 08:30:50;;;;;;;3.25;1.27;;;24.50;93.00;;;;;;5029783;28;20083;-75
2022/10/07 08:33:17;;;;;;;8.95;1.75;;;24.80;92.60;;;;;;5029589;28;20449;-77
2022/10/07 08:35:47;;;;;;;6.82;1.58;;;25.00;91.60;;;;;;5028279;28;20030;-75
2022/10/07 08:38:14;;;;;;;5.18;1.45;;;25.20;91.70;;;;;;5029275;28;20396;-76
2022/10/07 08:40:49;;;;;;;2.13;1.10;;;25.50;90.60;;;;;;5027998;28;20567;-77
2022/10/07 08:43:18;;;;;;;9.02;1.75;;;25.70;88.80;;;;;;5029270;28;20095;-77
2022/10/07 08:45:45;;;;;;;2.45;1.40;;;25.70;88.40;;;;;;5029224;28;20037;-77
2022/10/07 08:48:19;;;;;;;7.97;1.70;;;26.20;85.70;;;;;;5028819;28;20687;-77
2022/10/07 08:50:56;;;;;;;2.97;1.67;;;26.50;83.30;;;;;;5027794;28;20033;-76
2022/10/07 08:53:29;;;;;;;3.63;1.30;;;26.70;82.70;;;;;;5027489;28;20260;-77
2022/10/07 08:56:03;;;;;;;2.72;1.00;;;26.40;80.20;;;;;;5027412;28;20489;-76
2022/10/07 08:58:54;;;;;;;2.75;1.40;;;26.60;79.40;;;;;;5028701;28;20046;-76
2022/10/07 09:01:31;;;;;;;3.15;1.35;;;26.60;79.70;;;;;;5027729;28;20029;-78
2022/10/07 09:04:31;;;;;;;2.65;1.40;;;26.70;77.80;;;;;;5027460;28;20022;-76
2022/10/07 09:07:01;;;;;;;3.65;1.33;;;26.90;76.40;;;;;;5027413;28;20045;-77
2022/10/07 09:09:52;;;;;;;5.15;1.13;;;26.90;77.10;;;;;;5028733;28;20025;-77
2022/10/07 09:12:40;;;;;;;6.30;1.42;;;26.90;76.00;;;;;;5022810;28;20045;-77
2022/10/07 09:15:14;;;;;;;8.65;1.48;;;26.80;74.10;;;;;;5027297;28;20040;-75
2022/10/07 09:17:48;;;;;;;6.43;1.25;;;26.70;71.50;;;;;;5028824;28;20024;-75
2022/10/07 09:20:18;;;;;;;5.55;1.17;;;26.70;70.80;;;;;;5028555;28;20030;-76
2022/10/07 09:22:53;;;;;;;3.13;1.52;;;26.70;69.30;;;;;;5029030;28;20424;-76
2022/10/07 09:25:28;;;;;;;5.55;1.50;;;26.80;70.10;;;;;;5027125;28;20502;-76
2022/10/07 09:27:54;;;;;;;2.35;1.30;;;26.70;70.70;;;;;;5027948;28;20522;-76
2022/10/07 09:30:22;;;;;;;3.13;1.50;;;26.80;71.90;;;;;;5026912;28;20027;-76
2022/10/07 09:32:55;;;;;;;7.57;1.42;;;27.00;70.90;;;;;;5028485;28;20033;-76
2022/10/07 09:35:24;;;;;;;6.72;1.77;;;26.90;68.20;;;;;;5033554;28;20492;-76
2022/10/07 09:38:02;;;;;;;3.53;1.23;;;26.80;70.20;;;;;;5039802;28;20415;-77
2022/10/07 09:41:13;;;;;;;10.77;1.92;;;26.80;70.00;;;;;;5031059;28;20074;-77
2022/10/07 09:43:26;;;;;;;8.00;2.50;;;27.00;70.90;;;;;;5048031;28;20404;-77
2022/10/07 09:45:53;;;;;;;4.20;1.60;;;26.90;70.70;;;;;;5046599;28;20095;-77
2022/10/07 09:48:29;;;;;;;6.38;2.53;;;27.00;71.40;;;;;;5046611;28;20122;-77
2022/10/07 09:51:16;;;;;;;8.13;1.48;;;27.10;69.70;;;;;;5046657;28;20035;-77
2022/10/07 09:54:15;;;;;;;3.55;1.73;;;27.20;68.50;;;;;;5047482;28;20393;-76
2022/10/07 09:56:53;;;;;;;3.67;1.63;;;27.10;70.20;;;;;;5047742;28;20114;-76
2022/10/07 09:59:33;;;;;;;5.25;1.60;;;26.70;70.10;;;;;;5048064;28;20485;-76
2022/10/07 10:01:58;;;;;;;3.88;1.95;;;26.80;70.40;;;;;;5047428;28;20083;-76
2022/10/07 10:04:31;;;;;;;4.18;2.35;;;26.80;69.90;;;;;;5046486;28;20436;-76
2022/10/07 10:07:02;;;;;;;3.85;1.52;;;27.00;71.10;;;;;;5048183;28;20047;-77
2022/10/07 10:09:28;;;;;;;3.20;1.20;;;27.30;68.90;;;;;;5046804;28;20139;-77
2022/10/07 10:12:20;;;;;;;3.42;1.90;;;27.60;68.80;;;;;;5046508;28;20124;-77
2022/10/07 10:14:47;;;;;;;3.50;1.60;;;27.90;66.60;;;;;;5046334;28;20078;-77
2022/10/07 10:17:35;;;;;;;4.13;2.10;;;27.70;66.80;;;;;;5047867;28;20128;-75
2022/10/07 10:20:42;;;;;;;5.50;1.80;;;27.50;63.50;;;;;;5047587;28;20025;-76
2022/10/07 10:23:31;;;;;;;4.37;1.80;;;26.60;64.00;;;;;;5047036;28;20043;-76
2022/10/07 10:26:25;;;;;;;4.22;1.88;;;25.50;66.90;;;;;;5046770;28;20338;-76
2022/10/07 10:29:18;;;;;;;4.20;1.58;;;24.80;69.30;;;;;;5047854;28;20038;-76
2022/10/07 10:31:59;;;;;;;3.30;1.88;;;24.30;72.70;;;;;;5046460;28;20101;-75
2022/10/07 10:35:12;;;;;;;10.75;1.58;;;24.00;72.80;;;;;;5046304;28;20120;-76
2022/10/07 10:37:47;;;;;;;8.85;1.85;;;23.60;70.10;;;;;;5047959;28;20029;-76
2022/10/07 10:40:36;;;;;;;3.35;1.70;;;23.30;72.60;;;;;;5046143;28;20033;-76
2022/10/07 10:43:36;;;;;;;6.65;1.73;;;23.00;74.30;;;;;;5048215;28;20527;-76
2022/10/07 10:46:40;;;;;;;4.55;1.60;;;22.90;76.00;;;;;;5045652;28;20053;-76
2022/10/07 10:49:24;;;;;;;7.47;1.70;;;22.80;76.50;;;;;;5046465;28;20028;-76
2022/10/07 10:52:20;;;;;;;3.97;1.15;;;22.80;78.70;;;;;;5047614;28;20087;-76
2022/10/07 10:55:04;;;;;;;5.03;1.50;;;22.70;76.50;;;;;;5047867;28;20798;-77
2022/10/07 10:57:55;;;;;;;3.58;1.55;;;22.60;78.80;;;;;;5047292;28;20056;-76
2022/10/07 11:00:33;;;;;;;5.50;1.40;;;22.60;81.40;;;;;;5047367;28;20025;-77
2022/10/07 11:03:32;;;;;;;4.10;1.52;;;22.60;80.70;;;;;;5046994;28;20021;-76
2022/10/07 11:06:02;;;;;;;3.03;1.15;;;22.80;78.80;;;;;;5033736;28;20493;-76
2022/10/07 11:08:32;;;;;;;5.60;1.30;;;22.90;77.10;;;;;;5049591;28;20029;-76
2022/10/07 11:11:07;;;;;;;3.53;1.40;;;22.90;77.90;;;;;;5050864;28;20521;-76
2022/10/07 11:13:53;;;;;;;6.13;1.70;;;22.70;77.70;;;;;;5049668;28;20028;-75
2022/10/07 11:16:37;;;;;;;2.58;1.35;;;22.50;78.30;;;;;;5049257;28;20042;-76
2022/10/07 11:19:18;;;;;;;5.30;2.10;;;22.30;79.50;;;;;;5049726;28;20037;-76
2022/10/07 11:21:49;;;;;;;11.32;1.63;;;22.30;80.90;;;;;;5050956;28;20108;-76
2022/10/07 11:24:25;;;;;;;2.38;1.45;;;22.30;79.00;;;;;;5050469;28;20049;-76
2022/10/07 11:27:19;;;;;;;4.50;1.42;;;22.30;78.90;;;;;;5049305;28;20490;-76
2022/10/07 11:30:03;;;;;;;3.13;1.70;;;22.40;78.20;;;;;;5050694;28;20089;-76
2022/10/07 11:32:43;;;;;;;2.55;1.25;;;22.30;79.20;;;;;;5050522;28;20058;-76
2022/10/07 11:35:31;;;;;;;3.20;1.45;;;22.30;78.90;;;;;;5050518;28;20051;-76
2022/10/07 11:38:09;;;;;;;4.03;1.60;;;22.30;80.80;;;;;;5049701;28;20036;-76
2022/10/07 11:40:46;;;;;;;3.80;1.77;;;22.30;80.90;;;;;;5050300;28;20027;-76
2022/10/07 11:43:24;;;;;;;4.25;1.60;;;22.40;82.50;;;;;;5049954;28;20036;-75
2022/10/07 11:46:00;;;;;;;5.43;1.63;;;22.50;82.80;;;;;;5049155;28;20021;-75
2022/10/07 11:48:39;;;;;;;5.25;2.00;;;22.40;81.20;;;;;;5044173;28;20128;-75
2022/10/07 11:51:08;;;;;;;10.00;1.83;;;22.50;82.70;;;;;;5049213;28;20029;-75
2022/10/07 11:53:39;;;;;;;3.22;1.48;;;22.40;82.00;;;;;;5049997;28;20029;-76
2022/10/07 11:56:19;;;;;;;3.72;1.92;;;22.50;81.00;;;;;;5049681;28;20029;-76
2022/10/07 11:58:47;;;;;;;2.53;1.50;;;22.40;82.70;;;;;;5048947;28;20040;-76
2022/10/07 12:01:27;;;;;;;8.55;1.90;;;22.40;82.10;;;;;;5048465;28;20059;-76
2022/10/07 12:04:14;;;;;;;9.57;1.70;;;22.40;80.90;;;;;;5049757;28;20021;-76
2022/10/07 12:07:18;;;;;;;4.00;1.80;;;22.50;81.90;;;;;;5048629;28;20112;-75
2022/10/07 12:10:04;;;;;;;3.42;1.75;;;22.50;82.00;;;;;;5049851;28;20084;-76
2022/10/07 12:12:43;;;;;;;4.45;1.67;;;22.50;83.50;;;;;;5051096;28;20052;-77
2022/10/07 12:15:37;;;;;;;11.95;1.50;;;22.50;82.30;;;;;;5049638;28;20086;-76
2022/10/07 12:18:03;;;;;;;6.22;1.83;;;22.50;83.70;;;;;;5048005;28;20025;-76
2022/10/07 12:20:44;;;;;;;5.50;1.63;;;22.50;85.00;;;;;;5049543;28;20074;-76
2022/10/07 12:23:17;;;;;;;10.77;1.90;;;22.60;85.30;;;;;;5049642;28;20477;-77
2022/10/07 12:25:45;;;;;;;10.68;2.15;;;22.70;85.00;;;;;;5049795;28;20029;-79
2022/10/07 12:28:33;;;;;;;7.05;1.60;;;22.70;84.80;;;;;;5049137;28;20033;-76
2022/10/07 12:31:04;;;;;;;4.75;2.03;;;22.60;85.40;;;;;;5049641;28;20061;-76
2022/10/07 12:33:58;;;;;;;4.90;1.77;;;22.70;85.60;;;;;;5049344;28;20036;-76
2022/10/07 12:36:28;;;;;;;3.83;1.80;;;22.60;84.50;;;;;;5048099;28;20032;-76
2022/10/07 12:38:59;;;;;;;3.25;1.92;;;22.60;85.40;;;;;;5049326;28;20048;-76
2022/10/07 12:41:29;;;;;;;5.70;2.10;;;22.50;86.60;;;;;;5049218;28;20033;-76
2022/10/07 12:44:07;;;;;;;6.25;1.73;;;22.50;88.30;;;;;;5049073;28;20032;-76
2022/10/07 12:46:57;;;;;;;5.82;1.65;;;22.50;89.10;;;;;;5047663;28;20335;-76
2022/10/07 12:49:28;;;;;;;6.97;2.53;;;22.40;89.90;;;;;;5047626;28;20421;-76
2022/10/07 12:51:57;;;;;;;20.67;2.20;;;22.40;90.30;;;;;;5048978;28;20036;-76
2022/10/07 12:54:32;;;;;;;6.93;2.40;;;22.40;90.00;;;;;;5048941;28;20021;-77
2022/10/07 12:57:00;;;;;;;8.55;2.30;;;22.40;91.00;;;;;;5048794;28;20048;-75
2022/10/07 12:59:53;;;;;;;6.53;2.08;;;22.40;90.50;;;;;;5048848;28;20513;-76
2022/10/07 13:02:38;;;;;;;7.15;2.67;;;22.40;91.50;;;;;;5047378;28;20523;-76
2022/10/07 13:05:42;;;;;;;7.53;2.95;;;22.40;91.60;;;;;;5048973;28;20143;-75
2022/10/07 13:08:11;;;;;;;8.60;2.20;;;22.30;91.40;;;;;;5011810;28;20151;-75
2022/10/07 13:11:07;;;;;;;6.75;1.85;;;22.30;91.80;;;;;;5047716;28;20555;-76
2022/10/07 13:13:41;;;;;;;8.30;2.03;;;22.20;92.50;;;;;;5047301;28;20071;-77
2022/10/07 13:16:43;;;;;;;4.47;2.13;;;22.20;92.70;;;;;;5048664;28;20259;-73
2022/10/07 13:19:31;;;;;;;7.97;2.13;;;22.10;93.00;;;;;;5038520;28;20037;-76
2022/10/07 13:22:15;;;;;;;6.65;2.00;;;22.20;93.10;;;;;;5048810;28;20445;-76
2022/10/07 13:24:53;;;;;;;9.32;2.08;;;22.10;93.10;;;;;;5047081;28;20471;-76